sensor_id;sensor_type;location;lat;lon;timestamp;pressure;altitude;pressure_sealevel;temperature;humidity
63399;BME280;49533;-34.520;150.798;2022-07-29T00:00:09;101367.31;;;14.07;52.07
63399;BME280;49533;-34.520;150.798;2022-07-29T00:02:36;101371.03;;;14.11;51.83
63399;BME280;49533;-34.520;150.798;2022-07-29T00:05:04;101371.25;;;14.14;51.47
63399;BME280;49533;-34.520;150.798;2022-07-29T00:07:31;101379.63;;;14.18;51.46
63399;BME280;49533;-34.520;150.798;2022-07-29T00:09:58;101374.66;;;14.20;51.48
63399;BME280;49533;-34.520;150.798;2022-07-29T00:12:26;101359.25;;;14.24;51.12
63399;BME280;49533;-34.520;150.798;2022-07-29T00:14:56;101362.47;;;14.26;51.14
63399;BME280;49533;-34.520;150.798;2022-07-29T00:17:24;101360.72;;;14.30;50.91
63399;BME280;49533;-34.520;150.798;2022-07-29T00:19:51;101369.59;;;14.36;51.04
63399;BME280;49533;-34.520;150.798;2022-07-29T00:22:19;101363.84;;;14.38;51.06
63399;BME280;49533;-34.520;150.798;2022-07-29T00:24:48;101371.13;;;14.42;50.41
63399;BME280;49533;-34.520;150.798;2022-07-29T00:27:15;101367.53;;;14.42;50.37
63399;BME280;49533;-34.520;150.798;2022-07-29T00:29:42;101360.19;;;14.42;50.06
63399;BME280;49533;-34.520;150.798;2022-07-29T00:32:09;101357.91;;;14.44;50.34
63399;BME280;49533;-34.520;150.798;2022-07-29T00:34:37;101358.13;;;14.48;49.85
63399;BME280;49533;-34.520;150.798;2022-07-29T00:37:22;101360.75;;;14.53;49.67
63399;BME280;49533;-34.520;150.798;2022-07-29T00:39:49;101363.97;;;14.55;49.34
63399;BME280;49533;-34.520;150.798;2022-07-29T00:42:17;101351.72;;;14.52;49.44
63399;BME280;49533;-34.520;150.798;2022-07-29T00:44:44;101355.16;;;14.58;49.58
63399;BME280;49533;-34.520;150.798;2022-07-29T00:47:12;101361.13;;;14.60;49.44
63399;BME280;49533;-34.520;150.798;2022-07-29T00:49:40;101357.25;;;14.61;49.39
63399;BME280;49533;-34.520;150.798;2022-07-29T00:52:09;101355.66;;;14.60;49.28
63399;BME280;49533;-34.520;150.798;2022-07-29T00:54:38;101351.94;;;14.65;49.14
63399;BME280;49533;-34.520;150.798;2022-07-29T00:57:07;101345.88;;;14.68;49.12
63399;BME280;49533;-34.520;150.798;2022-07-29T00:59:34;101342.00;;;14.69;49.03
63399;BME280;49533;-34.520;150.798;2022-07-29T01:02:04;101350.06;;;14.74;48.70
63399;BME280;49533;-34.520;150.798;2022-07-29T01:04:32;101348.53;;;14.59;48.32
63399;BME280;49533;-34.520;150.798;2022-07-29T01:07:01;101342.00;;;14.46;46.38
63399;BME280;49533;-34.520;150.798;2022-07-29T01:09:32;101344.75;;;14.46;44.09
63399;BME280;49533;-34.520;150.798;2022-07-29T01:12:01;101344.56;;;14.43;44.26
63399;BME280;49533;-34.520;150.798;2022-07-29T01:14:29;101334.75;;;14.42;43.42
63399;BME280;49533;-34.520;150.798;2022-07-29T01:17:10;101337.31;;;14.38;41.53
63399;BME280;49533;-34.520;150.798;2022-07-29T01:22:44;101336.66;;;14.41;40.75
63399;BME280;49533;-34.520;150.798;2022-07-29T01:25:31;101334.44;;;14.43;41.88
63399;BME280;49533;-34.520;150.798;2022-07-29T01:30:51;101315.78;;;14.45;42.51
63399;BME280;49533;-34.520;150.798;2022-07-29T01:33:22;101308.53;;;14.41;42.01
63399;BME280;49533;-34.520;150.798;2022-07-29T01:36:36;101310.81;;;14.47;41.86
63399;BME280;49533;-34.520;150.798;2022-07-29T01:39:06;101304.22;;;14.48;41.07
63399;BME280;49533;-34.520;150.798;2022-07-29T01:41:37;101303.06;;;14.41;41.30
63399;BME280;49533;-34.520;150.798;2022-07-29T01:44:35;101294.22;;;14.44;39.28
63399;BME280;49533;-34.520;150.798;2022-07-29T01:47:17;101300.31;;;14.41;39.61
63399;BME280;49533;-34.520;150.798;2022-07-29T01:49:52;101304.66;;;14.42;40.38
63399;BME280;49533;-34.520;150.798;2022-07-29T01:52:52;101304.66;;;14.42;41.71
63399;BME280;49533;-34.520;150.798;2022-07-29T01:55:24;101301.00;;;14.46;39.39
63399;BME280;49533;-34.520;150.798;2022-07-29T01:57:52;101303.44;;;14.48;40.00
63399;BME280;49533;-34.520;150.798;2022-07-29T02:00:20;101304.88;;;14.45;40.40
63399;BME280;49533;-34.520;150.798;2022-07-29T02:02:49;101309.53;;;14.45;39.56
63399;BME280;49533;-34.520;150.798;2022-07-29T02:05:19;101295.50;;;14.38;39.16
63399;BME280;49533;-34.520;150.798;2022-07-29T02:07:48;101282.94;;;14.36;39.50
63399;BME280;49533;-34.520;150.798;2022-07-29T02:10:18;101287.47;;;14.41;39.29
63399;BME280;49533;-34.520;150.798;2022-07-29T02:12:46;101277.81;;;14.44;40.06
63399;BME280;49533;-34.520;150.798;2022-07-29T02:15:16;101281.69;;;14.43;40.50
63399;BME280;49533;-34.520;150.798;2022-07-29T02:17:52;101275.09;;;14.44;40.19
63399;BME280;49533;-34.520;150.798;2022-07-29T02:20:22;101275.09;;;14.44;40.06
63399;BME280;49533;-34.520;150.798;2022-07-29T02:22:52;101276.38;;;14.46;40.34
63399;BME280;49533;-34.520;150.798;2022-07-29T02:25:21;101269.47;;;14.49;39.24
63399;BME280;49533;-34.520;150.798;2022-07-29T02:27:51;101269.63;;;14.44;39.42
63399;BME280;49533;-34.520;150.798;2022-07-29T02:30:20;101275.09;;;14.44;40.10
63399;BME280;49533;-34.520;150.798;2022-07-29T02:32:49;101268.50;;;14.45;40.55
63399;BME280;49533;-34.520;150.798;2022-07-29T02:35:18;101270.63;;;14.48;40.22
63399;BME280;49533;-34.520;150.798;2022-07-29T02:37:47;101265.44;;;14.46;40.49
63399;BME280;49533;-34.520;150.798;2022-07-29T02:40:34;101258.38;;;14.45;40.72
63399;BME280;49533;-34.520;150.798;2022-07-29T02:43:05;101252.59;;;14.47;40.34
63399;BME280;49533;-34.520;150.798;2022-07-29T02:45:33;101252.59;;;14.47;40.51
63399;BME280;49533;-34.520;150.798;2022-07-29T02:48:06;101251.78;;;14.46;40.82
63399;BME280;49533;-34.520;150.798;2022-07-29T02:50:41;101250.34;;;14.49;40.63
63399;BME280;49533;-34.520;150.798;2022-07-29T02:53:17;101249.13;;;14.55;40.94
63399;BME280;49533;-34.520;150.798;2022-07-29T02:55:55;101241.38;;;14.57;39.96
63399;BME280;49533;-34.520;150.798;2022-07-29T02:58:45;101248.31;;;14.54;40.59
63399;BME280;49533;-34.520;150.798;2022-07-29T03:01:21;101248.78;;;14.56;40.42
63399;BME280;49533;-34.520;150.798;2022-07-29T03:03:51;101247.34;;;14.59;40.85
63399;BME280;49533;-34.520;150.798;2022-07-29T03:06:20;101245.13;;;14.61;41.33
63399;BME280;49533;-34.520;150.798;2022-07-29T03:08:48;101238.50;;;14.62;41.22
63399;BME280;49533;-34.520;150.798;2022-07-29T03:11:16;101242.38;;;14.61;41.57
63399;BME280;49533;-34.520;150.798;2022-07-29T03:13:44;101236.91;;;14.61;41.00
63399;BME280;49533;-34.520;150.798;2022-07-29T03:16:12;101221.16;;;14.58;41.25
63399;BME280;49533;-34.520;150.798;2022-07-29T03:18:40;101221.94;;;14.59;41.65
63399;BME280;49533;-34.520;150.798;2022-07-29T03:21:08;101232.44;;;14.65;41.51
63399;BME280;49533;-34.520;150.798;2022-07-29T03:23:35;101227.56;;;14.62;41.81
63399;BME280;49533;-34.520;150.798;2022-07-29T03:26:02;101224.22;;;14.65;41.81
63399;BME280;49533;-34.520;150.798;2022-07-29T03:28:29;101221.50;;;14.65;41.50
63399;BME280;49533;-34.520;150.798;2022-07-29T03:30:57;101228.06;;;14.64;42.07
63399;BME280;49533;-34.520;150.798;2022-07-29T03:33:24;101223.25;;;14.61;42.04
63399;BME280;49533;-34.520;150.798;2022-07-29T03:35:51;101225.97;;;14.61;41.85
63399;BME280;49533;-34.520;150.798;2022-07-29T03:38:18;101224.38;;;14.60;42.46
63399;BME280;49533;-34.520;150.798;2022-07-29T03:40:58;101216.97;;;14.61;42.60
63399;BME280;49533;-34.520;150.798;2022-07-29T03:43:32;101224.38;;;14.60;42.90
63399;BME280;49533;-34.520;150.798;2022-07-29T03:46:01;101220.50;;;14.61;42.97
63399;BME280;49533;-34.520;150.798;2022-07-29T03:48:32;101221.94;;;14.59;42.93
63399;BME280;49533;-34.520;150.798;2022-07-29T03:51:00;101217.47;;;14.63;42.99
63399;BME280;49533;-34.520;150.798;2022-07-29T03:53:27;101215.84;;;14.62;43.17
63399;BME280;49533;-34.520;150.798;2022-07-29T03:55:59;101213.59;;;14.64;43.54
63399;BME280;49533;-34.520;150.798;2022-07-29T03:58:28;101214.41;;;14.64;43.74
63399;BME280;49533;-34.520;150.798;2022-07-29T04:00:57;101215.53;;;14.63;44.08
63399;BME280;49533;-34.520;150.798;2022-07-29T04:03:25;101212.78;;;14.63;44.14
63399;BME280;49533;-34.520;150.798;2022-07-29T04:06:03;101216.63;;;14.62;43.97
63399;BME280;49533;-34.520;150.798;2022-07-29T04:08:33;101213.59;;;14.64;43.89
63399;BME280;49533;-34.520;150.798;2022-07-29T04:11:01;101217.91;;;14.56;41.45
63399;BME280;49533;-34.520;150.798;2022-07-29T04:13:28;101212.25;;;14.52;42.39
63399;BME280;49533;-34.520;150.798;2022-07-29T04:15:55;101217.53;;;14.49;41.83
63399;BME280;49533;-34.520;150.798;2022-07-29T04:18:22;101222.19;;;14.48;42.15
63399;BME280;49533;-34.520;150.798;2022-07-29T04:20:50;101219.78;;;14.47;42.56
63399;BME280;49533;-34.520;150.798;2022-07-29T04:23:17;101229.91;;;14.46;42.46
63399;BME280;49533;-34.520;150.798;2022-07-29T04:25:44;101228.31;;;14.45;42.96
63399;BME280;49533;-34.520;150.798;2022-07-29T04:28:11;101228.94;;;14.42;42.75
63399;BME280;49533;-34.520;150.798;2022-07-29T04:30:39;101229.53;;;14.39;42.66
63399;BME280;49533;-34.520;150.798;2022-07-29T04:33:07;101228.75;;;14.39;43.06
63399;BME280;49533;-34.520;150.798;2022-07-29T04:35:37;101236.28;;;14.33;42.67
63399;BME280;49533;-34.520;150.798;2022-07-29T04:38:05;101230.03;;;14.32;43.43
63399;BME280;49533;-34.520;150.798;2022-07-29T04:40:33;101238.16;;;14.24;43.18
63399;BME280;49533;-34.520;150.798;2022-07-29T04:43:00;101238.50;;;14.22;43.78
63399;BME280;49533;-34.520;150.798;2022-07-29T04:45:28;101241.75;;;14.33;43.78
63399;BME280;49533;-34.520;150.798;2022-07-29T04:47:55;101236.13;;;14.29;43.33
63399;BME280;49533;-34.520;150.798;2022-07-29T04:50:22;101229.03;;;14.28;43.66
63399;BME280;49533;-34.520;150.798;2022-07-29T04:52:50;101231.59;;;14.25;42.89
63399;BME280;49533;-34.520;150.798;2022-07-29T04:55:17;101247.50;;;14.23;42.58
63399;BME280;49533;-34.520;150.798;2022-07-29T04:57:44;101242.66;;;14.20;42.28
63399;BME280;49533;-34.520;150.798;2022-07-29T05:00:11;101248.94;;;14.20;42.60
63399;BME280;49533;-34.520;150.798;2022-07-29T05:02:38;101252.59;;;14.16;42.07
63399;BME280;49533;-34.520;150.798;2022-07-29T05:05:05;101248.25;;;14.14;42.58
63399;BME280;49533;-34.520;150.798;2022-07-29T05:07:33;101257.91;;;14.12;42.77
63399;BME280;49533;-34.520;150.798;2022-07-29T05:10:00;101258.53;;;14.09;42.54
63399;BME280;49533;-34.520;150.798;2022-07-29T05:12:27;101250.47;;;14.04;42.84
63399;BME280;49533;-34.520;150.798;2022-07-29T05:14:54;101252.84;;;14.05;43.57
63399;BME280;49533;-34.520;150.798;2022-07-29T05:17:21;101255.09;;;14.03;43.48
63399;BME280;49533;-34.520;150.798;2022-07-29T05:19:48;101268.44;;;14.05;43.92
63399;BME280;49533;-34.520;150.798;2022-07-29T05:22:18;101264.25;;;13.99;43.28
63399;BME280;49533;-34.520;150.798;2022-07-29T05:24:46;101262.13;;;13.96;43.86
63399;BME280;49533;-34.520;150.798;2022-07-29T05:27:13;101267.53;;;13.87;44.49
63399;BME280;49533;-34.520;150.798;2022-07-29T05:29:40;101258.03;;;13.84;44.28
63399;BME280;49533;-34.520;150.798;2022-07-29T05:32:07;101268.66;;;13.86;44.09
63399;BME280;49533;-34.520;150.798;2022-07-29T05:34:34;101268.53;;;13.91;44.28
63399;BME280;49533;-34.520;150.798;2022-07-29T05:37:01;101271.94;;;13.97;44.30
63399;BME280;49533;-34.520;150.798;2022-07-29T05:39:28;101269.09;;;14.02;45.19
63399;BME280;49533;-34.520;150.798;2022-07-29T05:41:56;101278.72;;;13.99;44.58
63399;BME280;49533;-34.520;150.798;2022-07-29T05:44:23;101279.63;;;13.95;44.86
63399;BME280;49533;-34.520;150.798;2022-07-29T05:46:50;101285.09;;;13.95;44.84
63399;BME280;49533;-34.520;150.798;2022-07-29T05:49:17;101290.25;;;13.96;44.76
63399;BME280;49533;-34.520;150.798;2022-07-29T05:51:44;101291.50;;;13.90;44.71
63399;BME280;49533;-34.520;150.798;2022-07-29T05:54:12;101292.63;;;13.89;44.50
63399;BME280;49533;-34.520;150.798;2022-07-29T05:56:39;101285.22;;;13.89;44.21
63399;BME280;49533;-34.520;150.798;2022-07-29T05:59:06;101299.81;;;13.85;44.44
63399;BME280;49533;-34.520;150.798;2022-07-29T06:01:33;101293.53;;;13.84;45.06
63399;BME280;49533;-34.520;150.798;2022-07-29T06:04:00;101297.19;;;13.80;45.48
63399;BME280;49533;-34.520;150.798;2022-07-29T06:06:28;101308.94;;;13.80;45.06
63399;BME280;49533;-34.520;150.798;2022-07-29T06:08:55;101306.03;;;13.77;45.42
63399;BME280;49533;-34.520;150.798;2022-07-29T06:11:22;101308.38;;;13.69;45.70
63399;BME280;49533;-34.520;150.798;2022-07-29T06:13:49;101306.44;;;13.70;45.57
63399;BME280;49533;-34.520;150.798;2022-07-29T06:16:16;101309.50;;;13.68;45.60
63399;BME280;49533;-34.520;150.798;2022-07-29T06:18:43;101317.19;;;13.66;45.27
63399;BME280;49533;-34.520;150.798;2022-07-29T06:21:10;101313.88;;;13.56;45.12
63399;BME280;49533;-34.520;150.798;2022-07-29T06:23:38;101315.59;;;13.52;45.37
63399;BME280;49533;-34.520;150.798;2022-07-29T06:26:05;101323.50;;;13.53;45.52
63399;BME280;49533;-34.520;150.798;2022-07-29T06:28:33;101320.88;;;13.48;45.45
63399;BME280;49533;-34.520;150.798;2022-07-29T06:31:00;101329.06;;;13.48;46.12
63399;BME280;49533;-34.520;150.798;2022-07-29T06:33:27;101330.66;;;13.49;46.50
63399;BME280;49533;-34.520;150.798;2022-07-29T06:35:54;101336.81;;;13.68;46.65
63399;BME280;49533;-34.520;150.798;2022-07-29T06:38:21;101339.34;;;13.87;46.73
63399;BME280;49533;-34.520;150.798;2022-07-29T06:40:48;101348.44;;;13.97;46.35
63399;BME280;49533;-34.520;150.798;2022-07-29T06:43:39;101346.38;;;14.02;46.85
63399;BME280;49533;-34.520;150.798;2022-07-29T06:46:09;101354.75;;;14.06;47.03
63399;BME280;49533;-34.520;150.798;2022-07-29T06:48:37;101356.91;;;14.09;46.98
63399;BME280;49533;-34.520;150.798;2022-07-29T06:51:05;101348.88;;;14.12;47.24
63399;BME280;49533;-34.520;150.798;2022-07-29T06:53:33;101348.56;;;14.14;47.24
63399;BME280;49533;-34.520;150.798;2022-07-29T06:56:02;101344.72;;;14.15;47.71
63399;BME280;49533;-34.520;150.798;2022-07-29T06:58:30;101351.19;;;14.19;47.47
63399;BME280;49533;-34.520;150.798;2022-07-29T07:00:58;101359.38;;;14.19;47.53
63399;BME280;49533;-34.520;150.798;2022-07-29T07:03:27;101364.53;;;14.21;47.55
63399;BME280;49533;-34.520;150.798;2022-07-29T07:05:54;101370.78;;;14.21;47.73
63399;BME280;49533;-34.520;150.798;2022-07-29T07:08:22;101366.44;;;14.20;47.70
63399;BME280;49533;-34.520;150.798;2022-07-29T07:10:53;101368.06;;;14.21;47.58
63399;BME280;49533;-34.520;150.798;2022-07-29T07:13:21;101370.78;;;14.21;47.83
63399;BME280;49533;-34.520;150.798;2022-07-29T07:15:48;101377.09;;;14.22;47.57
63399;BME280;49533;-34.520;150.798;2022-07-29T07:18:17;101370.78;;;14.21;47.98
63399;BME280;49533;-34.520;150.798;2022-07-29T07:20:45;101378.69;;;14.23;47.78
63399;BME280;49533;-34.520;150.798;2022-07-29T07:23:12;101386.09;;;14.22;47.99
63399;BME280;49533;-34.520;150.798;2022-07-29T07:25:39;101388.03;;;14.22;48.05
63399;BME280;49533;-34.520;150.798;2022-07-29T07:28:06;101392.66;;;14.21;47.97
63399;BME280;49533;-34.520;150.798;2022-07-29T07:30:33;101391.56;;;14.22;47.95
63399;BME280;49533;-34.520;150.798;2022-07-29T07:33:00;101396.22;;;14.22;48.14
63399;BME280;49533;-34.520;150.798;2022-07-29T07:35:27;101406.31;;;14.21;48.09
63399;BME280;49533;-34.520;150.798;2022-07-29T07:37:56;101403.59;;;14.21;47.99
63399;BME280;49533;-34.520;150.798;2022-07-29T07:40:23;101406.66;;;14.20;47.93
63399;BME280;49533;-34.520;150.798;2022-07-29T07:42:51;101407.75;;;14.19;48.04
63399;BME280;49533;-34.520;150.798;2022-07-29T07:45:18;101414.84;;;14.20;48.25
63399;BME280;49533;-34.520;150.798;2022-07-29T07:47:45;101412.41;;;14.18;48.33
63399;BME280;49533;-34.520;150.798;2022-07-29T07:50:13;101415.47;;;14.17;48.09
63399;BME280;49533;-34.520;150.798;2022-07-29T07:52:52;101414.34;;;14.18;48.23
63399;BME280;49533;-34.520;150.798;2022-07-29T07:55:20;101418.22;;;14.17;48.38
63399;BME280;49533;-34.520;150.798;2022-07-29T07:57:48;101429.13;;;14.17;48.37
63399;BME280;49533;-34.520;150.798;2022-07-29T08:00:16;101421.22;;;14.15;48.32
63399;BME280;49533;-34.520;150.798;2022-07-29T08:02:43;101425.91;;;14.14;48.29
63399;BME280;49533;-34.520;150.798;2022-07-29T08:05:11;101426.69;;;14.15;48.28
63399;BME280;49533;-34.520;150.798;2022-07-29T08:07:46;101430.56;;;14.14;48.35
63399;BME280;49533;-34.520;150.798;2022-07-29T08:10:18;101446.13;;;14.13;48.25
63399;BME280;49533;-34.520;150.798;2022-07-29T08:13:07;101448.84;;;14.13;48.32
63399;BME280;49533;-34.520;150.798;2022-07-29T08:15:35;101453.03;;;14.11;48.29
63399;BME280;49533;-34.520;150.798;2022-07-29T08:18:03;101460.75;;;14.09;48.22
63399;BME280;49533;-34.520;150.798;2022-07-29T08:20:30;101452.03;;;14.07;48.33
63399;BME280;49533;-34.520;150.798;2022-07-29T08:22:59;101449.59;;;14.05;48.35
63399;BME280;49533;-34.520;150.798;2022-07-29T08:25:26;101453.75;;;14.03;48.70
63399;BME280;49533;-34.520;150.798;2022-07-29T08:27:53;101454.06;;;14.01;48.68
63399;BME280;49533;-34.520;150.798;2022-07-29T08:30:20;101460.34;;;14.02;48.50
63399;BME280;49533;-34.520;150.798;2022-07-29T08:32:48;101459.84;;;14.00;48.63
63399;BME280;49533;-34.520;150.798;2022-07-29T08:35:20;101467.03;;;13.96;48.84
63399;BME280;49533;-34.520;150.798;2022-07-29T08:37:47;101467.03;;;13.96;49.16
63399;BME280;49533;-34.520;150.798;2022-07-29T08:40:14;101470.88;;;13.95;48.94
63399;BME280;49533;-34.520;150.798;2022-07-29T08:42:41;101468.44;;;13.93;48.89
63399;BME280;49533;-34.520;150.798;2022-07-29T08:45:09;101474.22;;;13.91;48.80
63399;BME280;49533;-34.520;150.798;2022-07-29T08:47:37;101477.25;;;13.90;48.91
63399;BME280;49533;-34.520;150.798;2022-07-29T08:50:10;101485.25;;;13.86;48.87
63399;BME280;49533;-34.520;150.798;2022-07-29T08:52:41;101483.16;;;13.83;48.86
63399;BME280;49533;-34.520;150.798;2022-07-29T08:55:09;101477.19;;;13.81;48.95
63399;BME280;49533;-34.520;150.798;2022-07-29T08:57:39;101485.88;;;13.83;48.91
63399;BME280;49533;-34.520;150.798;2022-07-29T09:00:07;101488.09;;;13.81;49.01
63399;BME280;49533;-34.520;150.798;2022-07-29T09:02:40;101485.38;;;13.81;49.01
63399;BME280;49533;-34.520;150.798;2022-07-29T09:05:08;101486.47;;;13.80;49.09
63399;BME280;49533;-34.520;150.798;2022-07-29T09:07:36;101495.78;;;13.79;49.06
63399;BME280;49533;-34.520;150.798;2022-07-29T09:10:06;101502.38;;;13.78;49.08
63399;BME280;49533;-34.520;150.798;2022-07-29T09:12:33;101501.34;;;13.74;48.82
63399;BME280;49533;-34.520;150.798;2022-07-29T09:15:00;101504.91;;;13.75;48.89
63399;BME280;49533;-34.520;150.798;2022-07-29T09:17:41;101507.94;;;13.73;49.13
63399;BME280;49533;-34.520;150.798;2022-07-29T09:20:13;101513.69;;;13.72;49.08
63399;BME280;49533;-34.520;150.798;2022-07-29T09:22:40;101509.38;;;13.70;49.09
63399;BME280;49533;-34.520;150.798;2022-07-29T09:25:07;101514.31;;;13.68;49.32
63399;BME280;49533;-34.520;150.798;2022-07-29T09:27:35;101522.78;;;13.67;49.03
63399;BME280;49533;-34.520;150.798;2022-07-29T09:30:05;101522.00;;;13.66;49.14
63399;BME280;49533;-34.520;150.798;2022-07-29T09:32:33;101519.88;;;13.63;49.11
63399;BME280;49533;-34.520;150.798;2022-07-29T09:35:22;101524.53;;;13.63;48.96
63399;BME280;49533;-34.520;150.798;2022-07-29T09:37:50;101519.66;;;13.60;49.21
63399;BME280;49533;-34.520;150.798;2022-07-29T09:40:22;101536.88;;;13.60;49.14
63399;BME280;49533;-34.520;150.798;2022-07-29T09:42:50;101542.63;;;13.59;49.06
63399;BME280;49533;-34.520;150.798;2022-07-29T09:45:32;101538.88;;;13.55;48.88
63399;BME280;49533;-34.520;150.798;2022-07-29T09:48:16;101541.13;;;13.53;49.05
63399;BME280;49533;-34.520;150.798;2022-07-29T09:50:45;101549.31;;;13.53;48.89
63399;BME280;49533;-34.520;150.798;2022-07-29T09:53:33;101550.41;;;13.52;48.99
63399;BME280;49533;-34.520;150.798;2022-07-29T09:56:01;101559.72;;;13.51;49.00
63399;BME280;49533;-34.520;150.798;2022-07-29T09:58:28;101560.81;;;13.49;49.17
63399;BME280;49533;-34.520;150.798;2022-07-29T10:00:56;101559.47;;;13.47;49.39
63399;BME280;49533;-34.520;150.798;2022-07-29T10:03:23;101559.81;;;13.45;49.24
63399;BME280;49533;-34.520;150.798;2022-07-29T10:06:06;101560.09;;;13.44;49.11
63399;BME280;49533;-34.520;150.798;2022-07-29T10:08:34;101559.66;;;13.37;49.39
63399;BME280;49533;-34.520;150.798;2022-07-29T10:11:20;101559.38;;;13.38;49.24
63399;BME280;49533;-34.520;150.798;2022-07-29T10:13:48;101562.91;;;13.39;49.32
63399;BME280;49533;-34.520;150.798;2022-07-29T10:16:16;101571.41;;;13.37;49.47
63399;BME280;49533;-34.520;150.798;2022-07-29T10:18:44;101570.38;;;13.33;49.08
63399;BME280;49533;-34.520;150.798;2022-07-29T10:21:13;101572.00;;;13.34;49.27
63399;BME280;49533;-34.520;150.798;2022-07-29T10:23:41;101568.78;;;13.32;49.13
63399;BME280;49533;-34.520;150.798;2022-07-29T10:26:10;101575.34;;;13.31;49.20
63399;BME280;49533;-34.520;150.798;2022-07-29T10:28:37;101573.22;;;13.28;49.35
63399;BME280;49533;-34.520;150.798;2022-07-29T10:31:06;101580.84;;;13.26;49.74
63399;BME280;49533;-34.520;150.798;2022-07-29T10:33:52;101577.59;;;13.24;49.49
63399;BME280;49533;-34.520;150.798;2022-07-29T10:37:11;101580.66;;;13.22;49.27
63399;BME280;49533;-34.520;150.798;2022-07-29T10:42:25;101580.41;;;13.19;49.36
63399;BME280;49533;-34.520;150.798;2022-07-29T10:44:54;101588.13;;;13.17;49.42
63399;BME280;49533;-34.520;150.798;2022-07-29T10:47:26;101594.16;;;13.14;49.67
63399;BME280;49533;-34.520;150.798;2022-07-29T10:50:04;101592.81;;;13.11;49.85
63399;BME280;49533;-34.520;150.798;2022-07-29T10:55:35;101586.88;;;13.09;49.43
63399;BME280;49533;-34.520;150.798;2022-07-29T10:58:30;101592.63;;;13.08;49.48
63399;BME280;49533;-34.520;150.798;2022-07-29T11:00:57;101597.56;;;13.05;49.54
63399;BME280;49533;-34.520;150.798;2022-07-29T11:03:46;101593.50;;;13.03;49.99
63399;BME280;49533;-34.520;150.798;2022-07-29T11:06:14;101593.81;;;13.01;49.84
63399;BME280;49533;-34.520;150.798;2022-07-29T11:08:41;101599.28;;;13.01;49.59
63399;BME280;49533;-34.520;150.798;2022-07-29T11:13:50;101604.81;;;12.96;49.78
63399;BME280;49533;-34.520;150.798;2022-07-29T11:16:18;101605.91;;;12.95;49.80
63399;BME280;49533;-34.520;150.798;2022-07-29T11:21:41;101604.38;;;12.89;49.89
63399;BME280;49533;-34.520;150.798;2022-07-29T11:24:17;101607.09;;;12.89;50.03
63399;BME280;49533;-34.520;150.798;2022-07-29T11:26:44;101612.84;;;12.88;50.18
63399;BME280;49533;-34.520;150.798;2022-07-29T11:29:21;101614.25;;;12.85;50.10
63399;BME280;49533;-34.520;150.798;2022-07-29T11:31:51;101618.09;;;12.84;50.28
63399;BME280;49533;-34.520;150.798;2022-07-29T11:34:24;101614.03;;;12.81;50.44
63399;BME280;49533;-34.520;150.798;2022-07-29T11:39:41;101620.66;;;12.75;50.51
63399;BME280;49533;-34.520;150.798;2022-07-29T11:45:11;101616.59;;;12.73;50.37
63399;BME280;49533;-34.520;150.798;2022-07-29T11:47:52;101623.97;;;12.72;50.26
63399;BME280;49533;-34.520;150.798;2022-07-29T11:50:36;101613.38;;;12.71;50.35
63399;BME280;49533;-34.520;150.798;2022-07-29T11:53:11;101620.50;;;12.67;50.31
63399;BME280;49533;-34.520;150.798;2022-07-29T11:55:40;101622.44;;;12.66;50.31
63399;BME280;49533;-34.520;150.798;2022-07-29T11:58:07;101623.84;;;12.64;50.24
63399;BME280;49533;-34.520;150.798;2022-07-29T12:00:41;101621.38;;;12.62;50.68
63399;BME280;49533;-34.520;150.798;2022-07-29T12:03:24;101617.34;;;12.59;50.72
63399;BME280;49533;-34.520;150.798;2022-07-29T12:05:52;101617.34;;;12.59;50.39
63399;BME280;49533;-34.520;150.798;2022-07-29T12:08:21;101625.00;;;12.57;50.74
63399;BME280;49533;-34.520;150.798;2022-07-29T12:10:52;101624.50;;;12.55;50.38
63399;BME280;49533;-34.520;150.798;2022-07-29T12:13:20;101625.06;;;12.52;50.33
63399;BME280;49533;-34.520;150.798;2022-07-29T12:15:57;101619.91;;;12.51;50.54
63399;BME280;49533;-34.520;150.798;2022-07-29T12:18:24;101624.56;;;12.50;50.49
63399;BME280;49533;-34.520;150.798;2022-07-29T12:20:59;101626.75;;;12.48;50.75
63399;BME280;49533;-34.520;150.798;2022-07-29T12:23:33;101621.06;;;12.45;50.78
63399;BME280;49533;-34.520;150.798;2022-07-29T12:26:04;101629.56;;;12.43;50.87
63399;BME280;49533;-34.520;150.798;2022-07-29T12:28:37;101635.59;;;12.40;50.88
63399;BME280;49533;-34.520;150.798;2022-07-29T12:31:04;101645.66;;;12.39;50.89
63399;BME280;49533;-34.520;150.798;2022-07-29T12:33:32;101638.06;;;12.36;50.50
63399;BME280;49533;-34.520;150.798;2022-07-29T12:36:02;101641.59;;;12.37;50.68
63399;BME280;49533;-34.520;150.798;2022-07-29T12:38:29;101655.53;;;12.35;50.55
63399;BME280;49533;-34.520;150.798;2022-07-29T12:40:57;101652.28;;;12.33;50.95
63399;BME280;49533;-34.520;150.798;2022-07-29T12:43:24;101641.66;;;12.32;50.89
63399;BME280;49533;-34.520;150.798;2022-07-29T12:45:54;101643.91;;;12.30;50.91
63399;BME280;49533;-34.520;150.798;2022-07-29T12:48:38;101647.72;;;12.29;50.97
63399;BME280;49533;-34.520;150.798;2022-07-29T12:51:07;101645.56;;;12.26;51.01
63399;BME280;49533;-34.520;150.798;2022-07-29T12:53:35;101641.50;;;12.23;50.94
63399;BME280;49533;-34.520;150.798;2022-07-29T12:56:04;101642.63;;;12.22;51.08
63399;BME280;49533;-34.520;150.798;2022-07-29T12:58:34;101638.25;;;12.21;51.07